sensor_id;sensor_type;location;lat;lon;timestamp;P1;P2;P0
55549;PMS7003;41397;49.972;18.944;2022-09-03T00:00:54;8;8;8
55549;PMS7003;41397;49.972;18.944;2022-09-03T00:04:02;3;3;2
55549;PMS7003;41397;49.972;18.944;2022-09-03T00:07:16;5;5;5
55549;PMS7003;41397;49.972;18.944;2022-09-03T00:13:39;5;5;5
55549;PMS7003;41397;49.972;18.944;2022-09-03T00:16:47;7;7;6
55549;PMS7003;41397;49.972;18.944;2022-09-03T00:19:56;7;7;7
55549;PMS7003;41397;49.972;18.944;2022-09-03T00:23:05;3;3;3
55549;PMS7003;41397;49.972;18.944;2022-09-03T00:29:27;6;6;5
55549;PMS7003;41397;49.972;18.944;2022-09-03T00:39:04;13;13;12
55549;PMS7003;41397;49.972;18.944;2022-09-03T00:45:24;4;4;4
55549;PMS7003;41397;49.972;18.944;2022-09-03T00:48:45;5;5;4
55549;PMS7003;41397;49.972;18.944;2022-09-03T01:03:08;4;4;4
55549;PMS7003;41397;49.972;18.944;2022-09-03T01:06:16;4;4;4
55549;PMS7003;41397;49.972;18.944;2022-09-03T01:25:36;7;7;7
55549;PMS7003;41397;49.972;18.944;2022-09-03T01:28:49;6;6;5
55549;PMS7003;41397;49.972;18.944;2022-09-03T01:41:47;6;6;6
55549;PMS7003;41397;49.972;18.944;2022-09-03T01:51:34;5;5;5
55549;PMS7003;41397;49.972;18.944;2022-09-03T02:01:04;3;3;3
55549;PMS7003;41397;49.972;18.944;2022-09-03T02:07:22;7;7;6
55549;PMS7003;41397;49.972;18.944;2022-09-03T02:13:46;5;5;4
55549;PMS7003;41397;49.972;18.944;2022-09-03T02:16:55;6;6;5
55549;PMS7003;41397;49.972;18.944;2022-09-03T02:20:01;2;2;2
55549;PMS7003;41397;49.972;18.944;2022-09-03T02:23:06;8;8;5
55549;PMS7003;41397;49.972;18.944;2022-09-03T02:26:11;6;6;3
55549;PMS7003;41397;49.972;18.944;2022-09-03T02:29:15;4;4;4
55549;PMS7003;41397;49.972;18.944;2022-09-03T02:32:17;8;8;7
55549;PMS7003;41397;49.972;18.944;2022-09-03T02:35:18;5;5;3
55549;PMS7003;41397;49.972;18.944;2022-09-03T02:38:21;6;6;6
55549;PMS7003;41397;49.972;18.944;2022-09-03T02:41:27;5;5;5
55549;PMS7003;41397;49.972;18.944;2022-09-03T02:44:29;1;1;1
55549;PMS7003;41397;49.972;18.944;2022-09-03T02:47:38;3;3;3
55549;PMS7003;41397;49.972;18.944;2022-09-03T02:50:44;5;5;3
55549;PMS7003;41397;49.972;18.944;2022-09-03T02:53:45;8;8;8
55549;PMS7003;41397;49.972;18.944;2022-09-03T02:56:47;4;4;4
55549;PMS7003;41397;49.972;18.944;2022-09-03T02:59:49;9;9;7
55549;PMS7003;41397;49.972;18.944;2022-09-03T03:02:50;6;6;3
55549;PMS7003;41397;49.972;18.944;2022-09-03T03:05:52;9;9;7
55549;PMS7003;41397;49.972;18.944;2022-09-03T03:08:56;4;4;4
55549;PMS7003;41397;49.972;18.944;2022-09-03T03:11:58;8;8;7
55549;PMS7003;41397;49.972;18.944;2022-09-03T03:14:59;5;5;4
55549;PMS7003;41397;49.972;18.944;2022-09-03T03:18:00;10;10;7
55549;PMS7003;41397;49.972;18.944;2022-09-03T03:21:05;5;5;5
55549;PMS7003;41397;49.972;18.944;2022-09-03T03:24:10;12;12;10
55549;PMS7003;41397;49.972;18.944;2022-09-03T03:27:11;5;5;4
55549;PMS7003;41397;49.972;18.944;2022-09-03T03:30:14;8;8;8
55549;PMS7003;41397;49.972;18.944;2022-09-03T03:33:15;7;7;5
55549;PMS7003;41397;49.972;18.944;2022-09-03T03:36:16;6;6;5
55549;PMS7003;41397;49.972;18.944;2022-09-03T03:39:17;7;7;7
55549;PMS7003;41397;49.972;18.944;2022-09-03T03:42:20;5;5;5
55549;PMS7003;41397;49.972;18.944;2022-09-03T03:45:21;5;5;4
55549;PMS7003;41397;49.972;18.944;2022-09-03T03:48:22;6;6;5
55549;PMS7003;41397;49.972;18.944;2022-09-03T03:51:23;6;6;5
55549;PMS7003;41397;49.972;18.944;2022-09-03T03:54:24;7;7;4
55549;PMS7003;41397;49.972;18.944;2022-09-03T03:57:28;8;8;7
55549;PMS7003;41397;49.972;18.944;2022-09-03T04:00:33;7;7;6
55549;PMS7003;41397;49.972;18.944;2022-09-03T04:03:38;7;7;6
55549;PMS7003;41397;49.972;18.944;2022-09-03T04:06:40;6;6;6
55549;PMS7003;41397;49.972;18.944;2022-09-03T04:09:42;9;9;7
55549;PMS7003;41397;49.972;18.944;2022-09-03T04:12:43;5;5;5
55549;PMS7003;41397;49.972;18.944;2022-09-03T04:15:44;6;6;5
55549;PMS7003;41397;49.972;18.944;2022-09-03T04:18:47;9;9;8
55549;PMS7003;41397;49.972;18.944;2022-09-03T04:21:49;8;8;7
55549;PMS7003;41397;49.972;18.944;2022-09-03T04:24:50;7;7;7
55549;PMS7003;41397;49.972;18.944;2022-09-03T04:27:51;7;7;7
55549;PMS7003;41397;49.972;18.944;2022-09-03T04:30:53;9;9;6
55549;PMS7003;41397;49.972;18.944;2022-09-03T04:33:54;7;7;5
55549;PMS7003;41397;49.972;18.944;2022-09-03T04:36:55;6;6;5
55549;PMS7003;41397;49.972;18.944;2022-09-03T04:39:59;8;8;6
55549;PMS7003;41397;49.972;18.944;2022-09-03T04:43:00;5;5;5
55549;PMS7003;41397;49.972;18.944;2022-09-03T04:46:03;7;7;6
55549;PMS7003;41397;49.972;18.944;2022-09-03T04:49:07;11;11;8
55549;PMS7003;41397;49.972;18.944;2022-09-03T04:52:09;3;3;3
55549;PMS7003;41397;49.972;18.944;2022-09-03T04:55:11;7;7;7
55549;PMS7003;41397;49.972;18.944;2022-09-03T04:58:12;10;10;8
55549;PMS7003;41397;49.972;18.944;2022-09-03T05:01:17;3;3;3
55549;PMS7003;41397;49.972;18.944;2022-09-03T05:04:20;6;6;5
55549;PMS7003;41397;49.972;18.944;2022-09-03T05:07:21;2;2;2
55549;PMS7003;41397;49.972;18.944;2022-09-03T05:10:22;4;4;4
55549;PMS7003;41397;49.972;18.944;2022-09-03T05:13:23;10;10;9
55549;PMS7003;41397;49.972;18.944;2022-09-03T05:16:25;9;9;7
55549;PMS7003;41397;49.972;18.944;2022-09-03T05:19:29;8;8;6
55549;PMS7003;41397;49.972;18.944;2022-09-03T05:22:31;8;8;8
55549;PMS7003;41397;49.972;18.944;2022-09-03T05:25:33;14;5;5
55549;PMS7003;41397;49.972;18.944;2022-09-03T05:28:35;4;4;4
55549;PMS7003;41397;49.972;18.944;2022-09-03T05:31:38;4;4;3
55549;PMS7003;41397;49.972;18.944;2022-09-03T05:34:39;5;5;5
55549;PMS7003;41397;49.972;18.944;2022-09-03T05:37:40;6;6;5
55549;PMS7003;41397;49.972;18.944;2022-09-03T05:40:42;6;6;5
55549;PMS7003;41397;49.972;18.944;2022-09-03T05:43:43;7;7;5
55549;PMS7003;41397;49.972;18.944;2022-09-03T05:46:45;8;8;7
55549;PMS7003;41397;49.972;18.944;2022-09-03T05:49:47;3;3;3
55549;PMS7003;41397;49.972;18.944;2022-09-03T05:52:48;4;4;4
55549;PMS7003;41397;49.972;18.944;2022-09-03T05:58:58;8;8;5
55549;PMS7003;41397;49.972;18.944;2022-09-03T06:02:01;9;9;7
55549;PMS7003;41397;49.972;18.944;2022-09-03T06:05:02;4;4;4
55549;PMS7003;41397;49.972;18.944;2022-09-03T06:08:03;8;8;7
55549;PMS7003;41397;49.972;18.944;2022-09-03T06:11:05;5;5;5
55549;PMS7003;41397;49.972;18.944;2022-09-03T06:14:07;4;4;3
55549;PMS7003;41397;49.972;18.944;2022-09-03T06:17:11;10;10;8
55549;PMS7003;41397;49.972;18.944;2022-09-03T07:10:45;6;6;6
55549;PMS7003;41397;49.972;18.944;2022-09-03T07:30:16;6;6;5
55549;PMS7003;41397;49.972;18.944;2022-09-03T07:33:40;8;3;2
55549;PMS7003;41397;49.972;18.944;2022-09-03T08:00:18;3;3;3
55549;PMS7003;41397;49.972;18.944;2022-09-03T08:11:26;4;4;3
55549;PMS7003;41397;49.972;18.944;2022-09-03T08:14:28;4;4;3
55549;PMS7003;41397;49.972;18.944;2022-09-03T08:17:31;5;5;4
55549;PMS7003;41397;49.972;18.944;2022-09-03T08:20:33;4;4;3
55549;PMS7003;41397;49.972;18.944;2022-09-03T08:23:38;5;5;4
55549;PMS7003;41397;49.972;18.944;2022-09-03T08:26:41;7;7;7
55549;PMS7003;41397;49.972;18.944;2022-09-03T08:29:43;4;4;4
55549;PMS7003;41397;49.972;18.944;2022-09-03T08:32:48;2;2;2
55549;PMS7003;41397;49.972;18.944;2022-09-03T08:35:53;2;2;2
55549;PMS7003;41397;49.972;18.944;2022-09-03T08:38:54;5;5;5
55549;PMS7003;41397;49.972;18.944;2022-09-03T08:45:16;5;5;5
55549;PMS7003;41397;49.972;18.944;2022-09-03T08:48:21;2;2;2
55549;PMS7003;41397;49.972;18.944;2022-09-03T08:51:27;8;8;4
55549;PMS7003;41397;49.972;18.944;2022-09-03T08:54:29;4;4;3
55549;PMS7003;41397;49.972;18.944;2022-09-03T08:57:42;4;4;3
55549;PMS7003;41397;49.972;18.944;2022-09-03T09:07:17;2;2;1
55549;PMS7003;41397;49.972;18.944;2022-09-03T09:17:01;2;2;2
55549;PMS7003;41397;49.972;18.944;2022-09-03T09:23:30;2;2;2
55549;PMS7003;41397;49.972;18.944;2022-09-03T09:26:36;2;2;2
55549;PMS7003;41397;49.972;18.944;2022-09-03T09:29:47;7;7;6
55549;PMS7003;41397;49.972;18.944;2022-09-03T09:32:50;6;6;5
55549;PMS7003;41397;49.972;18.944;2022-09-03T09:35:51;5;5;4
55549;PMS7003;41397;49.972;18.944;2022-09-03T09:38:53;3;3;3
55549;PMS7003;41397;49.972;18.944;2022-09-03T09:41:59;6;6;3
55549;PMS7003;41397;49.972;18.944;2022-09-03T09:45:10;4;4;3
55549;PMS7003;41397;49.972;18.944;2022-09-03T09:51:33;0;0;0
55549;PMS7003;41397;49.972;18.944;2022-09-03T09:54:35;3;3;2
55549;PMS7003;41397;49.972;18.944;2022-09-03T09:57:38;3;3;2
55549;PMS7003;41397;49.972;18.944;2022-09-03T10:00:40;3;3;3
55549;PMS7003;41397;49.972;18.944;2022-09-03T10:16:36;3;3;2
55549;PMS7003;41397;49.972;18.944;2022-09-03T10:23:08;4;4;4
55549;PMS7003;41397;49.972;18.944;2022-09-03T10:26:17;4;4;4
55549;PMS7003;41397;49.972;18.944;2022-09-03T10:29:30;3;3;2
55549;PMS7003;41397;49.972;18.944;2022-09-03T10:32:37;3;3;2
55549;PMS7003;41397;49.972;18.944;2022-09-03T10:35:45;6;6;4
55549;PMS7003;41397;49.972;18.944;2022-09-03T10:39:00;3;3;2
55549;PMS7003;41397;49.972;18.944;2022-09-03T10:45:35;2;2;2
55549;PMS7003;41397;49.972;18.944;2022-09-03T10:52:00;2;2;2
55549;PMS7003;41397;49.972;18.944;2022-09-03T11:01:50;3;3;3
55549;PMS7003;41397;49.972;18.944;2022-09-03T11:05:00;2;2;2
55549;PMS7003;41397;49.972;18.944;2022-09-03T11:11:18;6;6;5
55549;PMS7003;41397;49.972;18.944;2022-09-03T11:17:51;4;4;3
55549;PMS7003;41397;49.972;18.944;2022-09-03T11:21:00;6;6;6
55549;PMS7003;41397;49.972;18.944;2022-09-03T11:33:44;4;4;4
55549;PMS7003;41397;49.972;18.944;2022-09-03T11:36:51;;;4
55549;PMS7003;41397;49.972;18.944;2022-09-03T11:40:12;2;2;1
55549;PMS7003;41397;49.972;18.944;2022-09-03T11:46:30;2;2;2
55549;PMS7003;41397;49.972;18.944;2022-09-03T11:49:33;4;4;4
55549;PMS7003;41397;49.972;18.944;2022-09-03T11:52:44;2;2;2
55549;PMS7003;41397;49.972;18.944;2022-09-03T11:55:48;7;7;6
55549;PMS7003;41397;49.972;18.944;2022-09-03T11:59:03;3;3;3
55549;PMS7003;41397;49.972;18.944;2022-09-03T12:08:46;2;2;2
55549;PMS7003;41397;49.972;18.944;2022-09-03T12:15:17;3;3;3
55549;PMS7003;41397;49.972;18.944;2022-09-03T12:18:30;4;4;4
55549;PMS7003;41397;49.972;18.944;2022-09-03T12:21:37;3;3;2
55549;PMS7003;41397;49.972;18.944;2022-09-03T12:24:41;5;3;3
55549;PMS7003;41397;49.972;18.944;2022-09-03T12:27:44;5;5;5
55549;PMS7003;41397;49.972;18.944;2022-09-03T12:30:46;5;5;3
55549;PMS7003;41397;49.972;18.944;2022-09-03T12:33:52;3;3;3
55549;PMS7003;41397;49.972;18.944;2022-09-03T12:36:58;2;2;2
55549;PMS7003;41397;49.972;18.944;2022-09-03T12:39:59;5;5;4
55549;PMS7003;41397;49.972;18.944;2022-09-03T12:46:14;7;7;6
55549;PMS7003;41397;49.972;18.944;2022-09-03T12:49:15;7;7;6
55549;PMS7003;41397;49.972;18.944;2022-09-03T12:55:35;7;7;7
55549;PMS7003;41397;49.972;18.944;2022-09-03T13:01:57;7;7;6
55549;PMS7003;41397;49.972;18.944;2022-09-03T13:05:04;5;5;5
55549;PMS7003;41397;49.972;18.944;2022-09-03T13:08:37;10;10;8
55549;PMS7003;41397;49.972;18.944;2022-09-03T13:11:34;6;6;6
55549;PMS7003;41397;49.972;18.944;2022-09-03T13:14:42;8;8;6
55549;PMS7003;41397;49.972;18.944;2022-09-03T13:30:51;8;8;7
55549;PMS7003;41397;49.972;18.944;2022-09-03T13:34:02;10;10;9
55549;PMS7003;41397;49.972;18.944;2022-09-03T13:40:23;8;8;7
55549;PMS7003;41397;49.972;18.944;2022-09-03T13:59:55;6;6;5
55549;PMS7003;41397;49.972;18.944;2022-09-03T14:03:10;3;3;2
55549;PMS7003;41397;49.972;18.944;2022-09-03T14:19:11;11;11;9
55549;PMS7003;41397;49.972;18.944;2022-09-03T14:22:25;11;11;9
55549;PMS7003;41397;49.972;18.944;2022-09-03T14:25:35;7;7;5
55549;PMS7003;41397;49.972;18.944;2022-09-03T14:28:38;8;8;6
55549;PMS7003;41397;49.972;18.944;2022-09-03T14:38:17;8;8;7
55549;PMS7003;41397;49.972;18.944;2022-09-03T14:44:51;8;8;6
55549;PMS7003;41397;49.972;18.944;2022-09-03T15:10:37;8;8;6
55549;PMS7003;41397;49.972;18.944;2022-09-03T15:13:51;9;9;8
55549;PMS7003;41397;49.972;18.944;2022-09-03T15:30:10;6;6;4
55549;PMS7003;41397;49.972;18.944;2022-09-03T15:33:28;6;6;5
55549;PMS7003;41397;49.972;18.944;2022-09-03T15:36:37;10;10;8
55549;PMS7003;41397;49.972;18.944;2022-09-03T15:39:42;8;8;7
55549;PMS7003;41397;49.972;18.944;2022-09-03T15:42:47;7;7;5
55549;PMS7003;41397;49.972;18.944;2022-09-03T15:46:03;7;7;5
55549;PMS7003;41397;49.972;18.944;2022-09-03T15:55:45;9;9;9
55549;PMS7003;41397;49.972;18.944;2022-09-03T16:02:05;6;6;6
55549;PMS7003;41397;49.972;18.944;2022-09-03T16:05:15;11;11;9
55549;PMS7003;41397;49.972;18.944;2022-09-03T16:08:26;4;4;1
55549;PMS7003;41397;49.972;18.944;2022-09-03T16:11:39;9;9;6
55549;PMS7003;41397;49.972;18.944;2022-09-03T16:14:52;8;8;5
55549;PMS7003;41397;49.972;18.944;2022-09-03T16:18:06;8;8;6
55549;PMS7003;41397;49.972;18.944;2022-09-03T16:34:32;8;8;7
55549;PMS7003;41397;49.972;18.944;2022-09-03T16:44:22;9;9;7
55549;PMS7003;41397;49.972;18.944;2022-09-03T16:47:46;6;6;4
55549;PMS7003;41397;49.972;18.944;2022-09-03T17:10:59;8;8;8
55549;PMS7003;41397;49.972;18.944;2022-09-03T17:20:46;9;9;8
55549;PMS7003;41397;49.972;18.944;2022-09-03T17:30:24;9;9;8
55549;PMS7003;41397;49.972;18.944;2022-09-03T17:37:30;14;14;11
55549;PMS7003;41397;49.972;18.944;2022-09-03T17:46:30;10;10;10
55549;PMS7003;41397;49.972;18.944;2022-09-03T17:49:42;10;10;9
55549;PMS7003;41397;49.972;18.944;2022-09-03T18:02:33;13;12;10
55549;PMS7003;41397;49.972;18.944;2022-09-03T18:05:44;11;11;9
55549;PMS7003;41397;49.972;18.944;2022-09-03T18:12:05;11;11;10
55549;PMS7003;41397;49.972;18.944;2022-09-03T18:18:29;11;11;10
55549;PMS7003;41397;49.972;18.944;2022-09-03T18:21:33;4;4;4
55549;PMS7003;41397;49.972;18.944;2022-09-03T18:24:51;8;8;6
55549;PMS7003;41397;49.972;18.944;2022-09-03T18:28:11;13;13;10
55549;PMS7003;41397;49.972;18.944;2022-09-03T18:31:27;9;9;7
55549;PMS7003;41397;49.972;18.944;2022-09-03T18:34:41;14;14;11
55549;PMS7003;41397;49.972;18.944;2022-09-03T18:37:54;13;13;11
55549;PMS7003;41397;49.972;18.944;2022-09-03T18:51:25;11;11;9
55549;PMS7003;41397;49.972;18.944;2022-09-03T18:58:16;9;9;8
55549;PMS7003;41397;49.972;18.944;2022-09-03T19:01:39;16;16;13
55549;PMS7003;41397;49.972;18.944;2022-09-03T19:08:24;11;11;9
55549;PMS7003;41397;49.972;18.944;2022-09-03T19:15:16;15;15;12
55549;PMS7003;41397;49.972;18.944;2022-09-03T19:22:08;12;12;10
55549;PMS7003;41397;49.972;18.944;2022-09-03T19:25:26;17;17;12
55549;PMS7003;41397;49.972;18.944;2022-09-03T19:28:41;14;14;10
55549;PMS7003;41397;49.972;18.944;2022-09-03T19:31:59;12;12;8
55549;PMS7003;41397;49.972;18.944;2022-09-03T19:35:22;5;5;3
55549;PMS7003;41397;49.972;18.944;2022-09-03T19:38:48;14;14;10
55549;PMS7003;41397;49.972;18.944;2022-09-03T19:55:53;15;15;11
55549;PMS7003;41397;49.972;18.944;2022-09-03T19:59:16;16;16;10
55549;PMS7003;41397;49.972;18.944;2022-09-03T20:02:30;8;8;7
55549;PMS7003;41397;49.972;18.944;2022-09-03T20:05:45;14;14;11
55549;PMS7003;41397;49.972;18.944;2022-09-03T20:08:59;14;14;10
55549;PMS7003;41397;49.972;18.944;2022-09-03T20:12:19;13;13;10
55549;PMS7003;41397;49.972;18.944;2022-09-03T20:15:28;6;6;6
55549;PMS7003;41397;49.972;18.944;2022-09-03T20:43:17;9;9;6
55549;PMS7003;41397;49.972;18.944;2022-09-03T20:49:56;7;7;6
55549;PMS7003;41397;49.972;18.944;2022-09-03T20:59:52;13;13;8
55549;PMS7003;41397;49.972;18.944;2022-09-03T21:26:25;21;21;15
55549;PMS7003;41397;49.972;18.944;2022-09-03T21:29:29;14;14;11
55549;PMS7003;41397;49.972;18.944;2022-09-03T21:32:40;14;14;13
55549;PMS7003;41397;49.972;18.944;2022-09-03T21:35:53;16;16;13
55549;PMS7003;41397;49.972;18.944;2022-09-03T21:39:12;17;17;15
55549;PMS7003;41397;49.972;18.944;2022-09-03T21:45:28;17;17;13
55549;PMS7003;41397;49.972;18.944;2022-09-03T21:55:00;11;11;8
55549;PMS7003;41397;49.972;18.944;2022-09-03T22:01:21;18;18;15
55549;PMS7003;41397;49.972;18.944;2022-09-03T22:04:30;20;20;15
55549;PMS7003;41397;49.972;18.944;2022-09-03T22:17:17;18;18;12
55549;PMS7003;41397;49.972;18.944;2022-09-03T22:20:24;14;14;10
55549;PMS7003;41397;49.972;18.944;2022-09-03T22:23:39;18;18;14
55549;PMS7003;41397;49.972;18.944;2022-09-03T22:30:01;21;21;14
55549;PMS7003;41397;49.972;18.944;2022-09-03T22:33:15;21;21;15
55549;PMS7003;41397;49.972;18.944;2022-09-03T22:36:27;20;20;13
55549;PMS7003;41397;49.972;18.944;2022-09-03T22:39:39;20;19;13
55549;PMS7003;41397;49.972;18.944;2022-09-03T22:42:52;17;17;14
55549;PMS7003;41397;49.972;18.944;2022-09-03T22:55:31;16;16;13
55549;PMS7003;41397;49.972;18.944;2022-09-03T22:58:41;18;18;12
55549;PMS7003;41397;49.972;18.944;2022-09-03T23:01:55;12;12;9
55549;PMS7003;41397;49.972;18.944;2022-09-03T23:05:09;16;16;11
55549;PMS7003;41397;49.972;18.944;2022-09-03T23:14:44;11;11;10
55549;PMS7003;41397;49.972;18.944;2022-09-03T23:17:55;14;14;12
55549;PMS7003;41397;49.972;18.944;2022-09-03T23:21:06;17;17;13
55549;PMS7003;41397;49.972;18.944;2022-09-03T23:27:38;16;16;12
55549;PMS7003;41397;49.972;18.944;2022-09-03T23:30:47;14;14;10
55549;PMS7003;41397;49.972;18.944;2022-09-03T23:33:49;15;15;12
55549;PMS7003;41397;49.972;18.944;2022-09-03T23:46:58;17;17;13
